Time;durP1;ratioP1;P1;durP2;ratioP2;P2;SDS_P1;SDS_P2;PMS_P1;PMS_P2;Temp;Humidity;BMP_temperature;BMP_pressure;BME280_temperature;BME280_humidity;BME280_pressure;Samples;Min_cycle;Max_cycle;Signal;HPM_P1;HPM_P2
2022/12/05 00:01:15;;;;;;;;;;;13.10;93.10;;;;;;4592765;19;19967;-21
2022/12/05 00:02:46;;;;;;;;;;;13.10;93.10;;;;;;4593016;19;19934;-22
2022/12/05 00:04:18;;;;;;;;;;;13.10;93.10;;;;;;4592788;19;19921;-21
2022/12/05 00:05:49;;;;;;;;;;;13.00;93.10;;;;;;4591938;19;19925;-22
2022/12/05 00:07:20;;;;;;;;;;;13.10;93.20;;;;;;4592544;19;19926;-21
2022/12/05 00:08:53;;;;;;;;;;;13.10;93.20;;;;;;4592623;19;19919;-21
2022/12/05 00:10:23;;;;;;;;;;;13.10;93.20;;;;;;4591545;19;19919;-21
2022/12/05 00:11:54;;;;;;;;;;;13.10;93.20;;;;;;4592032;19;19943;-22
2022/12/05 00:13:26;;;;;;;;;;;13.10;93.20;;;;;;4594106;19;19915;-21
2022/12/05 00:14:57;;;;;;;;;;;13.10;93.20;;;;;;4594771;19;19915;-22
2022/12/05 00:16:28;;;;;;;;;;;13.10;93.20;;;;;;4592596;19;19951;-21
2022/12/05 00:17:59;;;;;;;;;;;13.20;93.20;;;;;;4591814;19;20284;-21
2022/12/05 00:19:30;;;;;;;;;;;13.20;93.20;;;;;;4590698;19;19924;-21
2022/12/05 00:21:02;;;;;;;;;;;13.20;93.20;;;;;;4592643;19;19918;-22
2022/12/05 00:22:37;;;;;;;;;;;13.20;93.10;;;;;;4591377;19;20301;-22
2022/12/05 00:24:10;;;;;;;;;;;13.20;93.10;;;;;;4592243;19;19914;-21
2022/12/05 00:25:41;;;;;;;;;;;13.10;93.10;;;;;;4591376;19;19919;-22
2022/12/05 00:27:12;;;;;;;;;;;13.10;93.10;;;;;;4592358;19;19930;-22
2022/12/05 00:28:43;;;;;;;;;;;13.10;93.10;;;;;;4592340;19;19915;-21
2022/12/05 00:30:14;;;;;;;;;;;13.00;93.10;;;;;;4591569;19;19923;-21
2022/12/05 00:31:45;;;;;;;;;;;13.00;93.10;;;;;;4593298;19;19926;-21
2022/12/05 00:33:16;;;;;;;;;;;13.00;93.20;;;;;;4594097;19;20329;-22
2022/12/05 00:34:47;;;;;;;;;;;13.00;93.10;;;;;;4592104;19;19918;-23
2022/12/05 00:36:21;;;;;;;;;;;12.90;93.20;;;;;;4592646;19;20387;-22
2022/12/05 00:37:52;;;;;;;;;;;12.90;93.20;;;;;;4592827;19;19933;-21
2022/12/05 00:39:23;;;;;;;;;;;13.00;93.20;;;;;;4592575;19;19939;-23
2022/12/05 00:40:55;;;;;;;;;;;12.90;93.20;;;;;;4593593;19;19922;-22
2022/12/05 00:42:26;;;;;;;;;;;13.00;93.40;;;;;;4594377;19;19935;-21
2022/12/05 00:43:58;;;;;;;;;;;12.90;93.20;;;;;;4593501;19;19919;-21
2022/12/05 00:45:29;;;;;;;;;;;13.00;93.20;;;;;;4593818;19;19926;-22
2022/12/05 00:47:00;;;;;;;;;;;13.00;93.30;;;;;;4591388;19;19915;-22
2022/12/05 00:48:31;;;;;;;;;;;13.00;93.30;;;;;;4590627;19;19922;-22
2022/12/05 00:50:03;;;;;;;;;;;13.00;93.30;;;;;;4593689;19;19922;-22
2022/12/05 00:51:35;;;;;;;;;;;13.00;93.30;;;;;;4591812;19;19919;-21
2022/12/05 00:53:06;;;;;;;;;;;13.10;93.30;;;;;;4591409;19;19946;-22
2022/12/05 00:54:38;;;;;;;;;;;13.10;93.30;;;;;;4594047;19;19926;-21
2022/12/05 00:56:12;;;;;;;;;;;13.10;93.30;;;;;;4591573;19;20333;-21
2022/12/05 00:57:43;;;;;;;;;;;13.10;93.30;;;;;;4591572;19;19939;-21
2022/12/05 00:59:17;;;;;;;;;;;13.10;93.20;;;;;;4591557;19;19919;-21
2022/12/05 01:00:48;;;;;;;;;;;13.10;93.20;;;;;;4591854;19;19922;-25
2022/12/05 01:02:19;;;;;;;;;;;13.10;93.20;;;;;;4591503;19;19971;-21
2022/12/05 01:03:52;;;;;;;;;;;13.10;93.20;;;;;;4591477;19;20246;-22
2022/12/05 01:05:22;;;;;;;;;;;13.10;93.20;;;;;;4592144;19;19925;-21
2022/12/05 01:06:54;;;;;;;;;;;13.00;93.20;;;;;;4593479;19;20258;-22
2022/12/05 01:08:26;;;;;;;;;;;13.00;93.20;;;;;;4593091;19;19923;-24
2022/12/05 01:09:57;;;;;;;;;;;13.00;93.20;;;;;;4590321;19;19926;-22
2022/12/05 01:11:28;;;;;;;;;;;13.00;93.20;;;;;;4591054;19;19918;-24
2022/12/05 01:12:59;;;;;;;;;;;13.00;93.20;;;;;;4590718;19;20320;-22
2022/12/05 01:14:30;;;;;;;;;;;13.00;93.20;;;;;;4591402;19;19915;-25
2022/12/05 01:16:01;;;;;;;;;;;13.00;93.20;;;;;;4591338;19;19911;-22
2022/12/05 01:17:34;;;;;;;;;;;13.00;93.20;;;;;;4591801;19;19919;-27
2022/12/05 01:19:10;;;;;;;;;;;13.00;93.20;;;;;;4591183;19;19918;-21
2022/12/05 01:20:41;;;;;;;;;;;13.00;93.20;;;;;;4591190;19;19929;-23
2022/12/05 01:22:12;;;;;;;;;;;13.00;93.20;;;;;;4590496;19;19926;-22
2022/12/05 01:23:44;;;;;;;;;;;13.00;93.20;;;;;;4590278;19;19921;-23
2022/12/05 01:25:17;;;;;;;;;;;13.00;93.10;;;;;;4590570;19;20347;-21
2022/12/05 01:26:48;;;;;;;;;;;13.00;93.10;;;;;;4591292;19;19918;-22
2022/12/05 01:28:19;;;;;;;;;;;13.00;93.10;;;;;;4590904;19;19922;-21
2022/12/05 01:29:50;;;;;;;;;;;13.00;93.10;;;;;;4590353;19;19911;-21
2022/12/05 01:31:22;;;;;;;;;;;13.00;93.00;;;;;;4591158;19;19925;-21
2022/12/05 01:32:53;;;;;;;;;;;12.90;93.10;;;;;;4590207;19;19930;-21
2022/12/05 01:34:24;;;;;;;;;;;12.90;93.10;;;;;;4591281;19;19919;-20
2022/12/05 01:35:55;;;;;;;;;;;12.90;93.10;;;;;;4591035;19;19939;-21
2022/12/05 01:37:26;;;;;;;;;;;12.90;93.10;;;;;;4590894;19;19919;-21
2022/12/05 01:38:57;;;;;;;;;;;13.00;93.10;;;;;;4590205;19;20329;-21
2022/12/05 01:40:29;;;;;;;;;;;13.00;93.10;;;;;;4591202;19;19926;-21
2022/12/05 01:41:59;;;;;;;;;;;13.00;93.10;;;;;;4590776;19;19982;-23
2022/12/05 01:43:30;;;;;;;;;;;13.00;93.00;;;;;;4590684;19;19923;-22
2022/12/05 01:45:13;;;;;;;;;;;13.00;93.10;;;;;;4590917;19;19942;-22
2022/12/05 01:46:44;;;;;;;;;;;13.00;93.10;;;;;;4589732;19;19930;-21
2022/12/05 01:48:20;;;;;;;;;;;12.90;93.00;;;;;;4590286;19;19915;-22
2022/12/05 01:49:53;;;;;;;;;;;12.90;93.30;;;;;;4589404;19;20269;-22
2022/12/05 01:51:24;;;;;;;;;;;13.00;93.10;;;;;;4589890;19;19926;-22
2022/12/05 01:52:55;;;;;;;;;;;13.00;93.00;;;;;;4588857;19;19918;-22
2022/12/05 01:54:26;;;;;;;;;;;13.00;93.00;;;;;;4590407;19;19923;-21
2022/12/05 01:55:57;;;;;;;;;;;13.00;93.00;;;;;;4588291;19;19922;-21
2022/12/05 01:57:28;;;;;;;;;;;13.00;93.00;;;;;;4590280;19;20320;-21
2022/12/05 01:59:00;;;;;;;;;;;12.90;93.00;;;;;;4591066;19;19923;-21
2022/12/05 02:00:31;;;;;;;;;;;12.90;93.10;;;;;;4590583;19;20345;-21
2022/12/05 02:02:02;;;;;;;;;;;12.90;93.10;;;;;;4590460;19;19925;-21
2022/12/05 02:03:34;;;;;;;;;;;13.00;93.10;;;;;;4589925;19;19919;-25
2022/12/05 02:05:05;;;;;;;;;;;12.90;93.10;;;;;;4589126;19;19919;-21
2022/12/05 02:06:37;;;;;;;;;;;12.90;93.00;;;;;;4589454;19;19936;-24
2022/12/05 02:08:10;;;;;;;;;;;12.90;93.10;;;;;;4590257;19;20265;-21
2022/12/05 02:09:40;;;;;;;;;;;12.90;93.00;;;;;;4590570;19;19930;-21
2022/12/05 02:11:11;;;;;;;;;;;12.90;93.00;;;;;;4587849;19;20404;-22
2022/12/05 02:12:43;;;;;;;;;;;12.90;93.00;;;;;;4588903;19;19915;-22
2022/12/05 02:14:17;;;;;;;;;;;12.90;93.00;;;;;;4590127;19;19919;-21
2022/12/05 02:15:51;;;;;;;;;;;12.90;93.00;;;;;;4590349;19;19926;-23
2022/12/05 02:17:22;;;;;;;;;;;12.90;93.00;;;;;;4590146;19;19975;-21
2022/12/05 02:18:56;;;;;;;;;;;12.90;93.00;;;;;;4590189;19;20245;-22
2022/12/05 02:20:47;;;;;;;;;;;12.90;92.90;;;;;;4590099;19;20302;-22
2022/12/05 02:22:27;;;;;;;;;;;12.90;93.00;;;;;;4587729;19;19911;-21
2022/12/05 02:24:16;;;;;;;;;;;12.90;92.90;;;;;;4588095;19;19915;-24
2022/12/05 02:26:02;;;;;;;;;;;12.90;92.90;;;;;;4587676;19;20006;-22
2022/12/05 02:27:34;;;;;;;;;;;12.90;92.90;;;;;;4589354;19;19915;-23
2022/12/05 02:29:23;;;;;;;;;;;12.90;92.90;;;;;;4587300;19;19941;-22
2022/12/05 02:31:04;;;;;;;;;;;13.00;93.00;;;;;;4587780;19;19919;-23
2022/12/05 02:32:37;;;;;;;;;;;13.00;92.90;;;;;;4587526;19;19939;-21
2022/12/05 02:34:15;;;;;;;;;;;13.00;92.90;;;;;;4587571;19;19926;-21
2022/12/05 02:35:59;;;;;;;;;;;13.00;92.90;;;;;;4587736;19;20278;-22
2022/12/05 02:37:48;;;;;;;;;;;13.00;92.80;;;;;;4587973;19;19996;-27
2022/12/05 02:39:25;;;;;;;;;;;13.00;92.80;;;;;;4586590;19;20335;-22
2022/12/05 02:41:05;;;;;;;;;;;13.00;92.80;;;;;;4587887;19;19925;-22
2022/12/05 02:42:39;;;;;;;;;;;13.00;92.70;;;;;;4590747;19;19937;-21
2022/12/05 02:44:12;;;;;;;;;;;13.00;92.70;;;;;;4592235;19;19919;-22
2022/12/05 02:45:44;;;;;;;;;;;13.00;92.70;;;;;;4592456;19;20029;-22
2022/12/05 02:47:16;;;;;;;;;;;13.00;92.70;;;;;;4592403;19;19978;-23
2022/12/05 02:48:50;;;;;;;;;;;13.00;92.80;;;;;;4594009;19;20242;-24
2022/12/05 02:50:23;;;;;;;;;;;12.90;92.80;;;;;;4591901;19;19919;-21
2022/12/05 02:51:56;;;;;;;;;;;13.00;92.80;;;;;;4592390;19;19935;-22
2022/12/05 02:53:26;;;;;;;;;;;12.90;92.70;;;;;;4592079;19;19926;-21
2022/12/05 02:54:57;;;;;;;;;;;13.00;92.80;;;;;;4591436;19;19986;-23
2022/12/05 02:56:29;;;;;;;;;;;13.00;92.70;;;;;;4592173;19;19934;-21
2022/12/05 02:58:02;;;;;;;;;;;13.00;92.70;;;;;;4592161;19;19922;-21
2022/12/05 02:59:33;;;;;;;;;;;13.00;92.70;;;;;;4592573;19;19911;-21
2022/12/05 03:01:04;;;;;;;;;;;12.90;92.70;;;;;;4593761;19;19926;-21
2022/12/05 03:02:37;;;;;;;;;;;12.90;92.70;;;;;;4594118;19;19933;-24
2022/12/05 03:04:08;;;;;;;;;;;13.00;92.70;;;;;;4592874;19;19939;-23
2022/12/05 03:05:42;;;;;;;;;;;12.90;92.60;;;;;;4593327;19;20395;-21
2022/12/05 03:07:13;;;;;;;;;;;13.00;92.60;;;;;;4592638;19;19938;-24
2022/12/05 03:08:46;;;;;;;;;;;13.00;92.60;;;;;;4593025;19;20361;-25
2022/12/05 03:10:18;;;;;;;;;;;12.90;92.60;;;;;;4594265;19;19923;-22
2022/12/05 03:12:01;;;;;;;;;;;12.90;92.60;;;;;;4593324;19;19915;-21
2022/12/05 03:13:34;;;;;;;;;;;12.80;92.60;;;;;;4593489;19;19919;-23
2022/12/05 03:15:30;;;;;;;;;;;12.90;92.90;;;;;;4593965;19;19927;-21
2022/12/05 03:17:02;;;;;;;;;;;12.90;92.60;;;;;;4593014;19;19922;-21
2022/12/05 03:18:37;;;;;;;;;;;12.90;92.60;;;;;;4592615;19;19935;-20
2022/12/05 03:20:26;;;;;;;;;;;12.90;92.50;;;;;;4593763;19;19915;-24
2022/12/05 03:21:58;;;;;;;;;;;12.90;92.60;;;;;;4592324;19;19935;-21
2022/12/05 03:23:36;;;;;;;;;;;12.90;92.60;;;;;;4593223;19;19988;-22
2022/12/05 03:25:10;;;;;;;;;;;12.90;92.50;;;;;;4594069;19;19926;-23
2022/12/05 03:26:43;;;;;;;;;;;12.90;92.60;;;;;;4592650;19;19943;-21
2022/12/05 03:28:14;;;;;;;;;;;12.90;92.50;;;;;;4593094;19;20336;-22
2022/12/05 03:29:50;;;;;;;;;;;12.90;92.50;;;;;;4593480;19;19911;-25
2022/12/05 03:31:26;;;;;;;;;;;12.90;92.60;;;;;;4593766;19;20677;-25
2022/12/05 03:33:20;;;;;;;;;;;12.90;92.60;;;;;;4591463;19;19930;-22
2022/12/05 03:34:54;;;;;;;;;;;12.80;92.60;;;;;;4591995;19;20003;-22
2022/12/05 03:36:32;;;;;;;;;;;12.80;92.70;;;;;;4593029;19;19922;-22
2022/12/05 03:38:24;;;;;;;;;;;12.90;92.70;;;;;;4592064;19;19966;-21
2022/12/05 03:40:24;;;;;;;;;;;12.90;92.70;;;;;;4591066;19;19923;-21
2022/12/05 03:41:55;;;;;;;;;;;12.90;92.60;;;;;;4591196;19;20308;-22
2022/12/05 03:43:29;;;;;;;;;;;12.90;92.60;;;;;;4591364;19;19943;-21
2022/12/05 03:45:20;;;;;;;;;;;12.90;92.60;;;;;;4591094;19;20460;-22
2022/12/05 03:47:00;;;;;;;;;;;12.90;92.60;;;;;;4590676;19;20258;-22
2022/12/05 03:48:31;;;;;;;;;;;12.90;92.50;;;;;;4590928;19;19939;-22
2022/12/05 03:50:05;;;;;;;;;;;12.90;92.60;;;;;;4590907;19;20337;-21
2022/12/05 03:51:43;;;;;;;;;;;12.90;92.50;;;;;;4591033;19;19915;-21
2022/12/05 03:53:16;;;;;;;;;;;12.90;92.50;;;;;;4588660;19;20361;-24
2022/12/05 03:54:52;;;;;;;;;;;12.90;92.60;;;;;;4590415;19;20005;-23
2022/12/05 03:56:24;;;;;;;;;;;12.90;92.60;;;;;;4590942;19;19992;-22
2022/12/05 03:58:00;;;;;;;;;;;12.90;92.60;;;;;;4591022;19;19910;-21
2022/12/05 03:59:39;;;;;;;;;;;12.90;92.60;;;;;;4590582;19;19923;-21
2022/12/05 04:01:10;;;;;;;;;;;12.90;92.60;;;;;;4590641;19;20333;-21
2022/12/05 04:02:49;;;;;;;;;;;12.90;92.50;;;;;;4590799;19;19929;-21
2022/12/05 04:04:23;;;;;;;;;;;12.80;92.50;;;;;;4590694;19;20275;-22
2022/12/05 04:05:55;;;;;;;;;;;12.90;92.50;;;;;;4590584;19;20310;-22
2022/12/05 04:07:26;;;;;;;;;;;12.90;92.50;;;;;;4590443;19;20243;-22
2022/12/05 04:09:11;;;;;;;;;;;12.80;92.50;;;;;;4590597;19;19915;-22
2022/12/05 04:10:48;;;;;;;;;;;12.90;92.50;;;;;;4590814;19;19911;-22
2022/12/05 04:12:21;;;;;;;;;;;12.80;92.50;;;;;;4589918;19;19933;-22
2022/12/05 04:13:53;;;;;;;;;;;12.80;92.60;;;;;;4590301;19;20552;-21
2022/12/05 04:15:26;;;;;;;;;;;12.80;92.60;;;;;;4590157;19;19915;-21
2022/12/05 04:17:04;;;;;;;;;;;12.80;92.50;;;;;;4590668;19;19915;-21
2022/12/05 04:18:36;;;;;;;;;;;12.80;92.50;;;;;;4591218;19;19915;-21
2022/12/05 04:22:08;;;;;;;;;;;12.90;92.60;;;;;;4592637;19;19952;-22
2022/12/05 04:23:39;;;;;;;;;;;12.90;92.50;;;;;;4592559;19;19985;-23
2022/12/05 04:27:22;;;;;;;;;;;12.80;92.50;;;;;;4590517;19;19923;-21
2022/12/05 04:29:04;;;;;;;;;;;12.80;92.50;;;;;;4591315;19;19919;-23
2022/12/05 04:30:39;;;;;;;;;;;12.80;92.50;;;;;;4591206;19;19947;-22
2022/12/05 04:32:10;;;;;;;;;;;12.80;92.50;;;;;;4591663;19;19919;-22
2022/12/05 04:33:43;;;;;;;;;;;12.80;92.60;;;;;;4590982;19;19966;-22
2022/12/05 04:35:16;;;;;;;;;;;12.80;92.60;;;;;;4591279;19;20288;-24
2022/12/05 04:36:54;;;;;;;;;;;12.80;92.50;;;;;;4590964;19;19936;-21
2022/12/05 04:38:34;;;;;;;;;;;12.80;92.60;;;;;;4592292;19;19923;-21
2022/12/05 04:40:10;;;;;;;;;;;12.80;92.60;;;;;;4592068;19;19939;-21
2022/12/05 04:42:13;;;;;;;;;;;12.80;92.60;;;;;;4593291;19;19950;-21
2022/12/05 04:43:45;;;;;;;;;;;12.90;92.50;;;;;;4589760;19;19971;-21
2022/12/05 04:45:16;;;;;;;;;;;13.00;92.30;;;;;;4589729;19;19939;-21
2022/12/05 04:46:47;;;;;;;;;;;13.00;92.20;;;;;;4589381;19;19951;-21
2022/12/05 04:48:19;;;;;;;;;;;13.10;92.20;;;;;;4590842;19;19923;-21
2022/12/05 04:49:51;;;;;;;;;;;13.10;92.10;;;;;;4590191;19;19911;-22
2022/12/05 04:51:23;;;;;;;;;;;13.20;92.00;;;;;;4589257;19;19919;-22
2022/12/05 04:52:54;;;;;;;;;;;13.20;92.00;;;;;;4588698;19;19948;-22
2022/12/05 04:54:28;;;;;;;;;;;13.30;92.00;;;;;;4589754;19;19911;-23
2022/12/05 04:55:59;;;;;;;;;;;13.30;92.00;;;;;;4588607;19;19943;-23
2022/12/05 04:57:32;;;;;;;;;;;13.30;91.90;;;;;;4591878;19;19941;-23
2022/12/05 04:59:03;;;;;;;;;;;13.40;92.00;;;;;;4590331;19;19941;-22
2022/12/05 05:00:37;;;;;;;;;;;13.40;91.90;;;;;;4591163;19;19914;-25
2022/12/05 05:02:08;;;;;;;;;;;13.40;91.90;;;;;;4588889;19;19922;-22
2022/12/05 05:03:43;;;;;;;;;;;13.40;91.90;;;;;;4590468;19;19982;-22
2022/12/05 05:05:15;;;;;;;;;;;13.50;92.00;;;;;;4589036;19;19919;-21
2022/12/05 05:06:46;;;;;;;;;;;13.60;91.90;;;;;;4588019;19;19936;-22
2022/12/05 05:08:18;;;;;;;;;;;13.70;91.80;;;;;;4589849;19;19943;-21
2022/12/05 05:09:49;;;;;;;;;;;13.70;91.90;;;;;;4588674;19;19935;-22
2022/12/05 05:11:21;;;;;;;;;;;13.60;91.80;;;;;;4588763;19;19922;-22
2022/12/05 05:12:52;;;;;;;;;;;13.60;91.80;;;;;;4587842;19;19915;-22
2022/12/05 05:14:23;;;;;;;;;;;13.60;91.80;;;;;;4588429;19;19919;-21
2022/12/05 05:15:54;;;;;;;;;;;13.60;91.90;;;;;;4591507;19;19929;-21
2022/12/05 05:17:25;;;;;;;;;;;13.60;91.80;;;;;;4591008;19;20271;-22
2022/12/05 05:18:56;;;;;;;;;;;13.50;91.90;;;;;;4590542;19;19915;-23
2022/12/05 05:20:27;;;;;;;;;;;13.40;92.00;;;;;;4593622;19;19975;-21
2022/12/05 05:21:59;;;;;;;;;;;13.40;92.00;;;;;;4591946;19;19974;-21
2022/12/05 05:23:30;;;;;;;;;;;13.30;92.10;;;;;;4590599;19;19938;-22
2022/12/05 05:25:01;;;;;;;;;;;13.30;92.10;;;;;;4590865;19;19946;-22
2022/12/05 05:26:34;;;;;;;;;;;13.30;92.20;;;;;;4591838;19;19915;-22
2022/12/05 05:28:05;;;;;;;;;;;13.30;92.20;;;;;;4590404;19;20243;-21
2022/12/05 05:29:37;;;;;;;;;;;13.30;92.20;;;;;;4591874;19;19925;-21
2022/12/05 05:31:08;;;;;;;;;;;13.30;92.20;;;;;;4591719;19;19914;-23
2022/12/05 05:32:39;;;;;;;;;;;13.20;92.20;;;;;;4591377;19;19935;-22
2022/12/05 05:34:10;;;;;;;;;;;13.30;92.20;;;;;;4592037;19;19923;-21
2022/12/05 05:35:41;;;;;;;;;;;13.30;92.10;;;;;;4593770;19;19922;-22
2022/12/05 05:37:12;;;;;;;;;;;13.20;92.10;;;;;;4593298;19;19925;-22
2022/12/05 05:38:44;;;;;;;;;;;13.30;92.10;;;;;;4593256;19;19966;-22
2022/12/05 05:40:15;;;;;;;;;;;13.30;92.20;;;;;;4593439;19;19919;-23
2022/12/05 05:41:46;;;;;;;;;;;13.20;92.20;;;;;;4591962;19;19927;-23
2022/12/05 05:43:18;;;;;;;;;;;13.20;92.20;;;;;;4591453;19;19919;-22
2022/12/05 05:44:49;;;;;;;;;;;13.20;92.30;;;;;;4593212;19;19935;-26
2022/12/05 05:46:20;;;;;;;;;;;13.20;92.20;;;;;;4592278;19;19934;-20
2022/12/05 05:47:52;;;;;;;;;;;13.20;92.20;;;;;;4591434;19;19915;-21
2022/12/05 05:49:23;;;;;;;;;;;13.20;92.20;;;;;;4590439;19;19952;-21
2022/12/05 05:50:54;;;;;;;;;;;13.20;92.10;;;;;;4592528;19;19923;-24
2022/12/05 05:52:25;;;;;;;;;;;13.20;92.20;;;;;;4592961;19;19927;-23
2022/12/05 05:53:56;;;;;;;;;;;13.20;92.20;;;;;;4592424;19;19981;-22
2022/12/05 05:55:27;;;;;;;;;;;13.20;92.20;;;;;;4590534;19;19940;-25
2022/12/05 05:56:58;;;;;;;;;;;13.20;92.20;;;;;;4591728;19;19923;-22
2022/12/05 05:58:29;;;;;;;;;;;13.20;92.20;;;;;;4592807;19;19938;-22
2022/12/05 06:00:00;;;;;;;;;;;13.20;92.30;;;;;;4591054;19;19922;-21
2022/12/05 06:01:32;;;;;;;;;;;13.10;92.20;;;;;;4587240;19;19929;-22
2022/12/05 06:03:03;;;;;;;;;;;13.10;92.20;;;;;;4592151;19;20263;-22
2022/12/05 06:04:34;;;;;;;;;;;13.10;92.30;;;;;;4591532;19;19925;-21
2022/12/05 06:06:06;;;;;;;;;;;13.10;92.40;;;;;;4588277;19;19929;-22
2022/12/05 06:07:37;;;;;;;;;;;13.10;92.40;;;;;;4585149;19;19926;-22
2022/12/05 06:09:08;;;;;;;;;;;13.00;92.30;;;;;;4590672;19;19926;-21
2022/12/05 06:10:40;;;;;;;;;;;13.00;92.40;;;;;;4586599;19;19918;-22
2022/12/05 06:12:11;;;;;;;;;;;13.00;92.30;;;;;;4590238;19;19939;-21
2022/12/05 06:13:42;;;;;;;;;;;13.00;92.30;;;;;;4588027;19;19951;-24
2022/12/05 06:15:14;;;;;;;;;;;13.00;92.30;;;;;;4589964;19;19956;-21
2022/12/05 06:16:45;;;;;;;;;;;13.10;92.50;;;;;;4587609;19;19926;-21
2022/12/05 06:18:16;;;;;;;;;;;13.10;92.20;;;;;;4589960;19;20247;-21
2022/12/05 06:19:47;;;;;;;;;;;13.20;92.10;;;;;;4590084;19;19946;-21
2022/12/05 06:21:18;;;;;;;;;;;13.20;92.10;;;;;;4588426;19;19911;-21
2022/12/05 06:22:49;;;;;;;;;;;13.30;92.30;;;;;;4590124;19;19923;-21
2022/12/05 06:24:21;;;;;;;;;;;13.20;92.00;;;;;;4590275;19;20620;-22
2022/12/05 06:25:53;;;;;;;;;;;13.20;92.30;;;;;;4591524;19;20019;-22
2022/12/05 06:27:26;;;;;;;;;;;13.20;92.10;;;;;;4589749;19;20338;-23
2022/12/05 06:28:58;;;;;;;;;;;13.20;92.10;;;;;;4588220;19;19996;-22
2022/12/05 06:30:29;;;;;;;;;;;13.20;92.10;;;;;;4590309;19;19915;-22
2022/12/05 06:32:00;;;;;;;;;;;13.20;92.10;;;;;;4591099;19;19943;-21
2022/12/05 06:33:31;;;;;;;;;;;13.20;92.10;;;;;;4587830;19;19922;-22
2022/12/05 06:35:09;;;;;;;;;;;13.20;92.10;;;;;;4590313;19;19935;-21
2022/12/05 06:36:40;;;;;;;;;;;13.10;92.10;;;;;;4589094;19;20268;-22
2022/12/05 06:38:12;;;;;;;;;;;13.10;92.10;;;;;;4588962;19;20264;-22
2022/12/05 06:39:43;;;;;;;;;;;13.10;92.20;;;;;;4588606;19;19919;-22
2022/12/05 06:41:15;;;;;;;;;;;13.10;92.20;;;;;;4589040;19;19929;-24
2022/12/05 06:42:46;;;;;;;;;;;13.00;92.10;;;;;;4590964;19;19990;-22
2022/12/05 06:44:17;;;;;;;;;;;13.00;92.20;;;;;;4590139;19;19919;-22
2022/12/05 06:45:48;;;;;;;;;;;13.00;92.10;;;;;;4588742;19;20349;-22
2022/12/05 06:47:19;;;;;;;;;;;13.00;92.10;;;;;;4589443;19;20323;-22
2022/12/05 06:48:54;;;;;;;;;;;13.10;92.10;;;;;;4589651;19;19915;-21
2022/12/05 06:50:25;;;;;;;;;;;13.10;92.10;;;;;;4592566;19;20253;-22
2022/12/05 06:51:56;;;;;;;;;;;13.10;92.00;;;;;;4590633;19;19925;-21
2022/12/05 06:53:27;;;;;;;;;;;13.20;92.00;;;;;;4589260;19;20394;-22
2022/12/05 06:54:58;;;;;;;;;;;13.20;92.10;;;;;;4591830;19;20370;-21
2022/12/05 06:56:30;;;;;;;;;;;13.20;92.00;;;;;;4590245;19;19922;-23
2022/12/05 06:58:01;;;;;;;;;;;13.30;92.00;;;;;;4592077;19;19947;-22
2022/12/05 06:59:32;;;;;;;;;;;13.20;92.00;;;;;;4591819;19;20003;-21
2022/12/05 07:02:53;;;;;;;;;;;13.20;92.00;;;;;;4592583;19;19952;-24
2022/12/05 07:04:24;;;;;;;;;;;13.40;91.90;;;;;;4591542;19;19990;-21
2022/12/05 07:05:58;;;;;;;;;;;13.40;91.90;;;;;;4588746;19;19923;-24
2022/12/05 07:07:29;;;;;;;;;;;13.40;91.90;;;;;;4592679;19;19922;-21
2022/12/05 07:09:00;;;;;;;;;;;13.30;92.00;;;;;;4591420;19;19919;-22
2022/12/05 07:10:31;;;;;;;;;;;13.30;92.00;;;;;;4589258;19;19986;-24
2022/12/05 07:12:02;;;;;;;;;;;13.20;92.00;;;;;;4591775;19;19926;-21
2022/12/05 07:13:33;;;;;;;;;;;13.20;92.10;;;;;;4590612;19;19952;-22
2022/12/05 07:15:05;;;;;;;;;;;13.10;92.30;;;;;;4588978;19;19918;-26
2022/12/05 07:16:36;;;;;;;;;;;13.10;92.10;;;;;;4591333;19;20265;-22
2022/12/05 07:18:07;;;;;;;;;;;13.10;92.10;;;;;;4590861;19;19994;-27
2022/12/05 07:19:38;;;;;;;;;;;13.10;92.10;;;;;;4590385;19;19923;-22
2022/12/05 07:21:11;;;;;;;;;;;13.10;92.10;;;;;;4591192;19;19918;-21
2022/12/05 07:22:44;;;;;;;;;;;13.10;92.10;;;;;;4590222;19;19933;-21
2022/12/05 07:24:15;;;;;;;;;;;13.10;92.10;;;;;;4589548;19;20231;-23
2022/12/05 07:25:47;;;;;;;;;;;13.00;92.10;;;;;;4591503;19;19923;-22
2022/12/05 07:27:19;;;;;;;;;;;13.00;92.10;;;;;;4590100;19;19934;-22
2022/12/05 07:28:51;;;;;;;;;;;13.00;92.00;;;;;;4593012;19;19922;-21
2022/12/05 07:30:22;;;;;;;;;;;13.00;92.10;;;;;;4594688;19;19980;-21
2022/12/05 07:31:54;;;;;;;;;;;13.00;92.10;;;;;;4594166;19;19932;-20
2022/12/05 07:33:25;;;;;;;;;;;13.00;92.20;;;;;;4593349;19;19914;-22
2022/12/05 07:34:56;;;;;;;;;;;13.00;92.10;;;;;;4594258;19;19949;-21
2022/12/05 07:36:27;;;;;;;;;;;13.10;92.10;;;;;;4594711;19;19914;-23
2022/12/05 07:37:58;;;;;;;;;;;13.10;92.50;;;;;;4594090;19;20348;-24
2022/12/05 07:39:32;;;;;;;;;;;13.10;92.10;;;;;;4592748;19;19935;-21
2022/12/05 07:41:06;;;;;;;;;;;13.10;92.10;;;;;;4596083;19;19922;-22
2022/12/05 07:42:37;;;;;;;;;;;13.10;92.20;;;;;;4595124;19;19922;-22
2022/12/05 07:44:09;;;;;;;;;;;13.10;92.20;;;;;;4595266;19;19993;-24
2022/12/05 07:45:40;;;;;;;;;;;13.10;92.20;;;;;;4594857;19;19914;-21
2022/12/05 07:47:12;;;;;;;;;;;13.10;92.20;;;;;;4595552;19;19915;-21
2022/12/05 07:48:43;;;;;;;;;;;13.10;92.20;;;;;;4595301;19;19919;-21
2022/12/05 07:50:14;;;;;;;;;;;13.10;92.20;;;;;;4594018;19;20390;-21
2022/12/05 07:51:45;;;;;;;;;;;13.10;92.20;;;;;;4594216;19;19923;-21
2022/12/05 07:53:16;;;;;;;;;;;13.00;92.20;;;;;;4593135;19;19915;-22
2022/12/05 07:54:47;;;;;;;;;;;13.00;92.20;;;;;;4594378;19;20360;-22
2022/12/05 07:56:18;;;;;;;;;;;13.00;92.20;;;;;;4593123;19;20853;-24
2022/12/05 07:57:49;;;;;;;;;;;13.10;92.20;;;;;;4593987;19;20253;-22
2022/12/05 07:59:20;;;;;;;;;;;13.00;92.20;;;;;;4594514;19;19932;-25
2022/12/05 08:00:52;;;;;;;;;;;13.00;92.20;;;;;;4594513;19;19971;-21
2022/12/05 08:02:23;;;;;;;;;;;13.00;92.20;;;;;;4595867;19;20333;-21
2022/12/05 08:03:54;;;;;;;;;;;13.00;92.30;;;;;;4595604;19;19921;-22
2022/12/05 08:05:26;;;;;;;;;;;13.00;92.30;;;;;;4593199;19;20108;-22
2022/12/05 08:06:57;;;;;;;;;;;13.00;92.30;;;;;;4594355;19;20230;-21
2022/12/05 08:08:28;;;;;;;;;;;13.00;92.30;;;;;;4595142;19;20375;-24
2022/12/05 08:09:59;;;;;;;;;;;12.90;92.20;;;;;;4594564;19;19919;-23
2022/12/05 08:11:31;;;;;;;;;;;13.00;92.20;;;;;;4592847;19;20249;-21
2022/12/05 08:13:02;;;;;;;;;;;13.00;92.20;;;;;;4592297;19;20350;-20
2022/12/05 08:14:33;;;;;;;;;;;13.00;92.20;;;;;;4592027;19;19915;-21
2022/12/05 08:16:14;;;;;;;;;;;13.00;92.30;;;;;;4593115;19;19926;-22
2022/12/05 08:17:45;;;;;;;;;;;13.00;92.20;;;;;;4593063;19;19971;-22
2022/12/05 08:19:16;;;;;;;;;;;13.00;92.20;;;;;;4595221;19;20259;-21
2022/12/05 08:20:47;;;;;;;;;;;12.90;92.30;;;;;;4593123;19;19978;-21
2022/12/05 08:22:18;;;;;;;;;;;12.90;92.20;;;;;;4594173;19;19911;-24
2022/12/05 08:23:50;;;;;;;;;;;12.90;92.20;;;;;;4592807;19;20372;-26
2022/12/05 08:25:21;;;;;;;;;;;12.90;92.20;;;;;;4591959;19;19922;-21
2022/12/05 08:26:52;;;;;;;;;;;12.90;92.20;;;;;;4592676;19;20330;-22
2022/12/05 08:28:23;;;;;;;;;;;12.90;92.30;;;;;;4592495;19;19915;-22
2022/12/05 08:29:54;;;;;;;;;;;12.90;92.20;;;;;;4592553;19;20362;-21
2022/12/05 08:31:25;;;;;;;;;;;12.90;92.30;;;;;;4593016;19;19929;-21
2022/12/05 08:32:57;;;;;;;;;;;12.90;92.20;;;;;;4592859;19;19915;-21
2022/12/05 08:34:28;;;;;;;;;;;13.00;92.30;;;;;;4592482;19;19925;-21
2022/12/05 08:36:02;;;;;;;;;;;13.00;92.30;;;;;;4592604;19;19925;-21
2022/12/05 08:37:33;;;;;;;;;;;12.90;92.30;;;;;;4593033;19;19948;-22
2022/12/05 08:39:05;;;;;;;;;;;12.90;92.20;;;;;;4591321;19;19927;-21
2022/12/05 08:40:36;;;;;;;;;;;12.90;92.30;;;;;;4590746;19;19914;-21
2022/12/05 08:42:07;;;;;;;;;;;12.90;92.20;;;;;;4592866;19;19922;-20
2022/12/05 08:43:38;;;;;;;;;;;12.90;92.30;;;;;;4593362;19;19918;-21
2022/12/05 08:45:09;;;;;;;;;;;12.90;92.30;;;;;;4593283;19;19930;-21
2022/12/05 08:46:41;;;;;;;;;;;12.90;92.30;;;;;;4592448;19;20276;-23
2022/12/05 08:48:11;;;;;;;;;;;12.90;92.50;;;;;;4592279;19;19966;-21
2022/12/05 08:49:42;;;;;;;;;;;12.90;92.30;;;;;;4593142;19;19915;-21
2022/12/05 08:51:14;;;;;;;;;;;12.90;92.30;;;;;;4592142;19;19950;-21
2022/12/05 08:52:45;;;;;;;;;;;12.90;92.30;;;;;;4592009;19;19926;-21
2022/12/05 08:54:16;;;;;;;;;;;12.80;92.30;;;;;;4592762;19;19915;-22
2022/12/05 08:55:48;;;;;;;;;;;12.80;92.30;;;;;;4591334;19;20329;-21
2022/12/05 08:57:19;;;;;;;;;;;12.80;92.30;;;;;;4592259;19;19931;-22
2022/12/05 08:58:50;;;;;;;;;;;12.80;92.30;;;;;;4592859;19;19911;-22
2022/12/05 09:00:21;;;;;;;;;;;12.90;92.30;;;;;;4592234;19;20265;-22
2022/12/05 09:01:52;;;;;;;;;;;12.90;92.30;;;;;;4592780;19;20278;-21
2022/12/05 09:03:23;;;;;;;;;;;12.90;92.30;;;;;;4592151;19;19942;-21
2022/12/05 09:04:55;;;;;;;;;;;12.90;92.30;;;;;;4592654;19;19922;-21
2022/12/05 09:06:26;;;;;;;;;;;12.90;92.30;;;;;;4592350;19;20317;-21